Time;durP1;ratioP1;P1;durP2;ratioP2;P2;SDS_P1;SDS_P2;PMS_P1;PMS_P2;Temp;Humidity;BMP_temperature;BMP_pressure;BME280_temperature;BME280_humidity;BME280_pressure;Samples;Min_cycle;Max_cycle;Signal;HPM_P1;HPM_P2
2021/12/20 00:00:53;;;;;;;24.00;21.57;;;2.50;99.90;;;;;;5035456;28;20200;-75
2021/12/20 00:03:20;;;;;;;22.53;20.47;;;2.60;99.90;;;;;;5035682;28;21005;-75
2021/12/20 00:05:47;;;;;;;24.13;21.83;;;2.60;99.90;;;;;;5035297;28;20472;-76
2021/12/20 00:08:15;;;;;;;25.27;22.67;;;2.60;99.90;;;;;;5017391;28;20451;-75
2021/12/20 00:10:42;;;;;;;24.17;21.87;;;2.60;99.90;;;;;;5017597;28;20506;-76
2021/12/20 00:13:09;;;;;;;24.93;22.43;;;2.60;99.90;;;;;;5017371;28;20454;-75
2021/12/20 00:15:36;;;;;;;23.77;21.37;;;2.60;99.90;;;;;;5035285;28;20469;-75
2021/12/20 00:18:03;;;;;;;25.37;22.73;;;2.60;99.90;;;;;;5034946;28;20477;-75
2021/12/20 00:20:30;;;;;;;23.47;21.23;;;2.60;99.90;;;;;;5033694;28;20443;-75
2021/12/20 00:22:57;;;;;;;25.73;22.00;;;2.60;99.90;;;;;;5030951;28;20211;-75
2021/12/20 00:25:25;;;;;;;23.83;21.33;;;2.60;99.90;;;;;;5035258;28;20462;-75
2021/12/20 00:27:52;;;;;;;26.40;23.33;;;2.60;99.90;;;;;;5016377;28;20473;-75
2021/12/20 00:30:21;;;;;;;25.77;22.50;;;2.60;99.90;;;;;;5032878;28;20931;-75
2021/12/20 00:32:47;;;;;;;25.83;23.33;;;2.60;99.90;;;;;;5015410;28;20204;-75
2021/12/20 00:35:17;;;;;;;25.07;22.40;;;2.60;99.90;;;;;;5033359;28;20458;-75
2021/12/20 00:40:30;;;;;;;23.33;20.83;;;2.60;99.90;;;;;;5015558;28;20442;-74
2021/12/20 00:42:58;;;;;;;24.30;21.70;;;2.70;99.90;;;;;;5033774;28;20434;-75
2021/12/20 00:45:28;;;;;;;23.80;21.37;;;2.70;99.90;;;;;;5012476;28;20591;-75
2021/12/20 00:47:56;;;;;;;19.93;16.87;;;2.70;99.90;;;;;;5029229;28;20774;-75
2021/12/20 00:50:24;;;;;;;18.73;13.10;;;2.70;99.90;;;;;;5033488;28;20453;-75
2021/12/20 00:52:52;;;;;;;16.90;12.90;;;2.70;99.90;;;;;;5033305;28;20442;-75
2021/12/20 00:55:23;;;;;;;24.07;16.50;;;2.70;99.90;;;;;;5033248;28;20513;-75
2021/12/20 00:57:53;;;;;;;21.83;18.57;;;2.80;99.90;;;;;;5015596;28;20517;-75
2021/12/20 01:00:23;;;;;;;24.63;21.60;;;2.80;99.90;;;;;;5033311;28;20989;-75
2021/12/20 01:02:52;;;;;;;24.00;21.87;;;2.70;99.90;;;;;;5015736;28;20451;-75
2021/12/20 01:05:23;;;;;;;21.53;17.67;;;2.80;99.90;;;;;;5032933;28;20458;-76
2021/12/20 01:07:54;;;;;;;23.30;21.10;;;2.80;99.90;;;;;;5033182;28;20837;-75
2021/12/20 01:10:21;;;;;;;17.93;13.87;;;2.80;99.90;;;;;;5033392;28;20439;-75
2021/12/20 01:12:50;;;;;;;18.33;13.77;;;2.80;99.90;;;;;;5015178;28;20208;-76
2021/12/20 01:15:24;;;;;;;21.27;17.50;;;2.80;99.90;;;;;;5033024;28;20212;-76
2021/12/20 01:17:51;;;;;;;19.67;15.13;;;2.80;99.90;;;;;;5015193;28;20839;-75
2021/12/20 01:20:18;;;;;;;21.40;14.13;;;2.70;99.90;;;;;;5015219;28;20474;-75
2021/12/20 01:22:47;;;;;;;16.97;11.40;;;2.70;99.90;;;;;;5033282;28;20458;-75
2021/12/20 01:25:15;;;;;;;19.17;13.13;;;2.70;99.90;;;;;;5015156;28;20475;-75
2021/12/20 01:27:42;;;;;;;19.13;15.47;;;2.70;99.90;;;;;;5011831;28;20207;-75
2021/12/20 01:30:12;;;;;;;19.03;13.10;;;2.70;99.90;;;;;;5032969;28;20207;-75
2021/12/20 01:32:41;;;;;;;16.83;11.67;;;2.70;99.90;;;;;;5032747;28;20202;-75
2021/12/20 01:35:09;;;;;;;17.80;11.90;;;2.70;99.90;;;;;;5032413;28;20525;-75
2021/12/20 01:37:36;;;;;;;17.40;12.60;;;2.80;99.90;;;;;;5046561;28;20454;-75
2021/12/20 01:40:05;;;;;;;16.10;11.23;;;2.80;99.90;;;;;;5032503;28;20474;-75
2021/12/20 01:42:34;;;;;;;18.50;12.93;;;2.80;99.90;;;;;;5032502;28;20442;-75
2021/12/20 01:45:01;;;;;;;18.00;15.10;;;2.80;99.90;;;;;;5007589;28;20376;-75
2021/12/20 01:47:31;;;;;;;20.77;14.63;;;2.80;99.90;;;;;;5032280;28;20431;-75
2021/12/20 01:50:05;;;;;;;19.90;13.90;;;2.70;99.90;;;;;;5014681;28;20900;-74
2021/12/20 01:52:40;;;;;;;21.33;15.83;;;2.70;99.90;;;;;;5024866;28;20196;-75
2021/12/20 01:55:08;;;;;;;17.93;12.90;;;2.70;99.90;;;;;;5032307;28;20996;-75
2021/12/20 01:57:35;;;;;;;18.97;13.37;;;2.70;99.90;;;;;;5031919;28;20442;-76
2021/12/20 02:00:02;;;;;;;20.87;13.97;;;2.70;99.90;;;;;;5014627;28;20212;-75
2021/12/20 02:02:29;;;;;;;19.77;13.63;;;2.70;99.90;;;;;;5030024;28;20446;-75
2021/12/20 02:05:04;;;;;;;21.70;14.27;;;2.70;99.90;;;;;;5032114;28;20599;-76
2021/12/20 02:07:35;;;;;;;20.37;14.00;;;2.70;99.90;;;;;;5024559;28;20779;-75
2021/12/20 02:10:02;;;;;;;22.57;15.57;;;2.80;99.90;;;;;;5014408;28;20215;-75
2021/12/20 02:12:30;;;;;;;20.07;14.93;;;2.80;99.90;;;;;;5024162;28;20200;-75
2021/12/20 02:14:57;;;;;;;21.63;15.63;;;2.80;99.90;;;;;;5014235;28;20241;-75
2021/12/20 02:17:26;;;;;;;26.33;18.00;;;2.70;99.90;;;;;;5031878;28;20196;-75
2021/12/20 02:19:53;;;;;;;20.33;17.20;;;2.80;99.90;;;;;;5031901;28;20488;-75
2021/12/20 02:22:21;;;;;;;20.30;16.40;;;2.70;99.90;;;;;;5009469;28;20200;-75
2021/12/20 02:24:48;;;;;;;18.20;16.00;;;2.80;99.90;;;;;;5031831;28;20983;-76
2021/12/20 02:27:16;;;;;;;20.33;14.70;;;2.80;99.90;;;;;;5031509;28;20435;-75
2021/12/20 02:29:58;;;;;;;22.77;16.73;;;2.80;99.90;;;;;;5031897;28;20439;-75
2021/12/20 02:37:56;;;;;;;19.90;15.83;;;2.70;99.90;;;;;;5028694;28;20496;-81
2021/12/20 02:40:23;;;;;;;23.80;17.27;;;2.70;99.90;;;;;;5032032;28;20294;-81
2021/12/20 02:42:52;;;;;;;21.73;16.37;;;2.70;99.90;;;;;;5033790;28;20250;-79
2021/12/20 02:45:18;;;;;;;23.17;16.97;;;2.70;99.90;;;;;;5031851;28;20219;-80
2021/12/20 02:47:47;;;;;;;23.03;16.93;;;2.70;99.90;;;;;;5031819;28;20555;-77
2021/12/20 02:50:15;;;;;;;21.20;15.57;;;2.60;99.90;;;;;;5033726;28;20437;-80
2021/12/20 02:52:42;;;;;;;18.53;14.70;;;2.70;99.90;;;;;;5032176;28;20960;-80
2021/12/20 02:55:11;;;;;;;21.10;16.17;;;2.70;99.90;;;;;;5032250;28;20711;-80
2021/12/20 02:57:40;;;;;;;25.30;21.70;;;2.70;99.90;;;;;;5037247;28;20430;-79
2021/12/20 03:00:09;;;;;;;22.17;17.47;;;2.70;99.90;;;;;;5037937;28;20481;-80
2021/12/20 03:02:36;;;;;;;23.93;18.47;;;2.70;99.90;;;;;;5037766;28;20458;-80
2021/12/20 03:05:04;;;;;;;22.90;14.97;;;2.70;99.90;;;;;;5036201;28;20470;-78
2021/12/20 03:07:40;;;;;;;22.57;18.37;;;2.70;99.90;;;;;;5036232;28;20196;-77
2021/12/20 03:10:08;;;;;;;21.03;12.93;;;2.80;99.90;;;;;;5037133;28;20195;-80
2021/12/20 03:12:36;;;;;;;18.93;14.43;;;2.70;99.90;;;;;;5030996;28;20704;-80
2021/12/20 03:15:10;;;;;;;21.07;18.03;;;2.70;99.90;;;;;;5036676;28;20858;-80
2021/12/20 03:17:37;;;;;;;18.13;14.20;;;2.70;99.90;;;;;;5038215;28;20449;-79
2021/12/20 03:20:05;;;;;;;18.57;11.67;;;2.70;99.90;;;;;;5036882;28;20207;-79
2021/12/20 03:22:32;;;;;;;16.73;11.77;;;2.70;99.90;;;;;;5037874;28;20441;-78
2021/12/20 03:24:59;;;;;;;16.57;11.30;;;2.80;99.90;;;;;;5036383;28;20219;-78
2021/12/20 03:27:26;;;;;;;21.27;16.57;;;2.80;99.90;;;;;;5037384;28;20196;-78
2021/12/20 03:29:55;;;;;;;22.03;16.33;;;2.80;99.90;;;;;;5033813;28;20936;-79
2021/12/20 03:32:22;;;;;;;18.43;14.97;;;2.80;99.90;;;;;;5040266;28;20431;-81
2021/12/20 03:34:48;;;;;;;20.43;17.93;;;2.80;99.90;;;;;;5038475;28;21070;-82
2021/12/20 03:37:18;;;;;;;17.90;13.23;;;2.80;99.90;;;;;;5037649;28;20507;-82
2021/12/20 03:39:45;;;;;;;22.73;13.43;;;2.80;99.90;;;;;;5036659;28;20625;-81
2021/12/20 03:42:12;;;;;;;17.80;12.07;;;2.70;99.90;;;;;;5038720;28;20430;-80
2021/12/20 03:44:44;;;;;;;18.90;11.97;;;2.80;99.90;;;;;;5041588;28;20497;-80
2021/12/20 03:47:12;;;;;;;17.40;12.10;;;2.80;99.90;;;;;;5041297;28;20534;-77
2021/12/20 03:49:40;;;;;;;16.87;12.20;;;2.80;99.90;;;;;;5034815;28;20493;-77
2021/12/20 03:52:08;;;;;;;20.17;14.30;;;2.80;99.90;;;;;;5030058;28;20223;-77
2021/12/20 03:54:35;;;;;;;21.27;14.40;;;2.80;99.90;;;;;;5033297;28;20626;-77
2021/12/20 03:57:03;;;;;;;19.43;17.33;;;2.80;99.90;;;;;;5033216;28;20211;-76
2021/12/20 03:59:30;;;;;;;22.60;20.50;;;2.80;99.90;;;;;;5025464;28;20212;-76
2021/12/20 04:01:58;;;;;;;20.70;12.43;;;2.80;99.90;;;;;;5034338;28;20192;-77
2021/12/20 04:04:26;;;;;;;19.37;12.33;;;2.70;99.90;;;;;;5033213;28;20455;-77
2021/12/20 04:06:53;;;;;;;20.90;11.93;;;2.70;99.90;;;;;;5033986;28;20453;-77
2021/12/20 04:09:20;;;;;;;17.60;11.83;;;2.70;99.90;;;;;;5036530;28;20192;-77
2021/12/20 04:11:46;;;;;;;19.20;12.20;;;2.80;99.90;;;;;;5037088;28;20844;-80
2021/12/20 04:14:13;;;;;;;20.90;13.27;;;2.70;99.90;;;;;;5034870;28;20196;-79
2021/12/20 04:16:40;;;;;;;22.77;20.67;;;2.80;99.90;;;;;;5034346;28;20469;-79
2021/12/20 04:19:10;;;;;;;16.93;12.73;;;2.80;99.90;;;;;;5036423;28;20218;-82
2021/12/20 04:21:38;;;;;;;21.13;17.57;;;2.80;99.90;;;;;;5036413;28;20188;-79
2021/12/20 04:24:08;;;;;;;18.83;15.20;;;2.80;99.90;;;;;;5033324;28;20458;-78
2021/12/20 04:26:35;;;;;;;19.67;17.70;;;2.80;99.90;;;;;;5031235;28;20931;-79
2021/12/20 04:29:02;;;;;;;15.87;11.97;;;2.80;99.90;;;;;;5034091;28;20199;-80
2021/12/20 04:31:29;;;;;;;17.80;11.97;;;2.80;99.90;;;;;;5026208;28;20200;-80
2021/12/20 04:33:55;;;;;;;22.43;20.33;;;2.80;99.90;;;;;;5033791;28;20454;-80
2021/12/20 04:36:22;;;;;;;17.00;14.57;;;2.80;99.90;;;;;;5032478;28;20678;-79
2021/12/20 04:38:51;;;;;;;19.80;15.50;;;2.70;99.90;;;;;;5035531;28;20196;-79
2021/12/20 04:41:17;;;;;;;20.97;15.53;;;2.70;99.90;;;;;;5037750;28;20478;-79
2021/12/20 04:43:44;;;;;;;25.97;23.57;;;2.70;99.90;;;;;;5036148;28;20451;-80
2021/12/20 04:46:11;;;;;;;18.90;15.47;;;2.60;99.90;;;;;;5035750;28;20224;-80
2021/12/20 04:48:38;;;;;;;17.43;13.97;;;2.70;99.90;;;;;;5036604;28;20215;-79
2021/12/20 04:51:05;;;;;;;17.20;12.90;;;2.80;99.90;;;;;;5035407;28;20656;-79
2021/12/20 04:53:32;;;;;;;19.00;15.77;;;2.80;99.90;;;;;;5035993;28;20210;-79
2021/12/20 04:56:00;;;;;;;17.90;13.20;;;2.80;99.90;;;;;;5036429;28;20474;-79
2021/12/20 04:58:27;;;;;;;15.67;11.83;;;2.80;99.90;;;;;;5035198;28;20446;-78
2021/12/20 05:00:54;;;;;;;19.53;14.27;;;2.80;99.90;;;;;;5035472;28;20551;-78
2021/12/20 05:03:21;;;;;;;18.80;12.37;;;2.80;99.90;;;;;;5025890;28;20448;-79
2021/12/20 05:05:48;;;;;;;17.23;12.03;;;2.80;99.90;;;;;;5027661;28;20472;-79
2021/12/20 05:08:15;;;;;;;16.20;11.00;;;2.70;99.90;;;;;;5031915;28;20446;-81
2021/12/20 05:10:43;;;;;;;16.17;11.43;;;2.70;99.90;;;;;;5035413;28;20224;-80
2021/12/20 05:13:13;;;;;;;18.23;12.20;;;2.70;99.90;;;;;;5034240;28;20263;-80
2021/12/20 05:15:41;;;;;;;17.60;11.60;;;2.70;99.90;;;;;;5035496;28;20212;-80
2021/12/20 05:18:10;;;;;;;20.77;17.17;;;2.60;99.90;;;;;;5035317;28;20202;-80
2021/12/20 05:20:37;;;;;;;17.60;14.77;;;2.60;99.90;;;;;;5033449;28;20478;-78
2021/12/20 05:23:05;;;;;;;22.47;18.50;;;2.60;99.90;;;;;;5035197;28;20810;-80
2021/12/20 05:25:32;;;;;;;20.17;16.23;;;2.60;99.90;;;;;;5035724;28;20466;-82
2021/12/20 05:27:59;;;;;;;18.63;14.03;;;2.60;99.90;;;;;;5035764;28;20454;-82
2021/12/20 05:30:27;;;;;;;23.83;21.33;;;2.60;99.90;;;;;;5036490;28;20438;-83
2021/12/20 05:32:55;;;;;;;20.90;17.77;;;2.60;99.90;;;;;;5035569;28;20445;-81
2021/12/20 05:35:22;;;;;;;18.37;15.40;;;2.60;99.90;;;;;;5035923;28;20494;-81
2021/12/20 05:37:49;;;;;;;17.43;12.13;;;2.60;99.90;;;;;;5034591;28;20708;-82
2021/12/20 05:40:17;;;;;;;17.43;11.87;;;2.60;99.90;;;;;;5034024;28;20481;-82
2021/12/20 05:42:46;;;;;;;19.80;13.60;;;2.60;99.90;;;;;;5035328;28;20892;-82
2021/12/20 05:45:19;;;;;;;21.73;13.80;;;2.60;99.90;;;;;;5035075;28;20520;-84
2021/12/20 05:47:48;;;;;;;22.23;15.30;;;2.60;99.90;;;;;;5035429;28;20516;-83
2021/12/20 05:50:18;;;;;;;17.53;14.53;;;2.60;99.90;;;;;;5034615;28;20458;-83
2021/12/20 05:52:46;;;;;;;23.93;21.57;;;2.60;99.90;;;;;;5035239;28;20443;-80
2021/12/20 05:55:14;;;;;;;23.00;20.80;;;2.60;99.90;;;;;;5036436;28;20513;-80
2021/12/20 05:57:41;;;;;;;23.80;21.37;;;2.60;99.90;;;;;;5035200;28;20449;-80
2021/12/20 06:00:14;;;;;;;24.40;22.00;;;2.60;99.90;;;;;;5035899;28;20272;-80
2021/12/20 06:02:42;;;;;;;24.23;21.77;;;2.60;99.90;;;;;;5036910;28;20443;-80
2021/12/20 06:05:14;;;;;;;24.23;21.80;;;2.60;99.90;;;;;;5033897;28;21007;-80
2021/12/20 06:07:42;;;;;;;25.77;23.07;;;2.60;99.90;;;;;;5034326;28;20912;-82
2021/12/20 06:10:14;;;;;;;23.73;21.53;;;2.60;99.90;;;;;;5035561;28;20577;-79
2021/12/20 06:12:42;;;;;;;24.20;21.63;;;2.70;99.90;;;;;;5033677;28;20798;-80
2021/12/20 06:15:09;;;;;;;25.67;23.00;;;2.70;99.90;;;;;;5034543;28;20546;-80
2021/12/20 06:17:37;;;;;;;25.97;22.90;;;2.70;99.90;;;;;;5033894;28;20454;-79
2021/12/20 06:20:05;;;;;;;23.57;20.10;;;2.70;99.90;;;;;;5035477;28;20467;-82
2021/12/20 06:22:33;;;;;;;21.20;14.97;;;2.70;99.90;;;;;;5035917;28;20203;-82
2021/12/20 06:25:00;;;;;;;26.37;23.50;;;2.70;99.90;;;;;;5036819;28;20462;-82
2021/12/20 06:27:27;;;;;;;27.17;21.50;;;2.70;99.90;;;;;;5036011;28;20207;-81
2021/12/20 06:29:54;;;;;;;20.83;14.43;;;2.70;99.90;;;;;;5036681;28;20497;-81
2021/12/20 06:32:21;;;;;;;21.63;19.33;;;2.80;99.90;;;;;;5036751;28;20939;-81
2021/12/20 06:34:47;;;;;;;23.33;18.53;;;2.70;99.90;;;;;;5033309;28;20231;-82
2021/12/20 06:37:15;;;;;;;19.00;16.47;;;2.80;99.90;;;;;;5033776;28;20447;-81
2021/12/20 06:39:43;;;;;;;19.90;14.70;;;2.70;99.90;;;;;;5032871;28;20446;-82
2021/12/20 06:42:10;;;;;;;21.07;15.20;;;2.80;99.90;;;;;;5034057;28;20211;-83
2021/12/20 06:44:37;;;;;;;24.00;21.00;;;2.80;99.90;;;;;;5035936;28;20192;-80
2021/12/20 06:47:04;;;;;;;24.73;16.50;;;2.80;99.90;;;;;;5034761;28;20200;-80
2021/12/20 06:49:31;;;;;;;21.60;13.97;;;2.80;99.90;;;;;;5032353;28;20207;-82
2021/12/20 06:52:00;;;;;;;20.80;15.73;;;2.90;99.90;;;;;;5033152;28;20623;-81
2021/12/20 06:54:27;;;;;;;24.13;16.23;;;2.90;99.90;;;;;;5032626;28;20497;-79
2021/12/20 06:56:55;;;;;;;21.40;14.70;;;2.90;99.90;;;;;;5033432;28;20200;-80
2021/12/20 06:59:22;;;;;;;22.77;15.17;;;2.90;99.90;;;;;;5029018;28;20971;-80
2021/12/20 07:01:49;;;;;;;29.70;18.50;;;2.90;99.90;;;;;;5032594;28;20474;-80
2021/12/20 07:04:16;;;;;;;27.13;20.73;;;2.90;99.90;;;;;;5034264;28;20188;-80
2021/12/20 07:06:43;;;;;;;26.17;21.30;;;2.90;99.90;;;;;;5032601;28;20200;-81
2021/12/20 07:09:10;;;;;;;25.47;20.93;;;3.00;99.90;;;;;;5032188;28;20211;-80
2021/12/20 07:11:39;;;;;;;26.83;17.20;;;3.00;99.90;;;;;;5032104;28;20661;-79
2021/12/20 07:14:07;;;;;;;28.40;25.47;;;3.00;99.90;;;;;;5034218;28;20450;-80
2021/12/20 07:16:35;;;;;;;26.37;17.57;;;3.00;99.90;;;;;;5032472;28;20223;-80
2021/12/20 07:19:04;;;;;;;23.70;16.83;;;3.00;99.90;;;;;;5034424;28;20466;-80
2021/12/20 07:21:31;;;;;;;21.37;14.47;;;2.90;99.90;;;;;;5025791;28;20216;-79
2021/12/20 07:23:58;;;;;;;24.97;16.67;;;2.90;99.90;;;;;;5033318;28;20431;-80
2021/12/20 07:26:25;;;;;;;26.17;23.53;;;2.90;99.90;;;;;;5032797;28;20235;-79
2021/12/20 07:28:52;;;;;;;22.90;18.60;;;2.90;99.90;;;;;;5028086;28;20453;-80
2021/12/20 07:31:22;;;;;;;25.60;22.93;;;2.90;99.90;;;;;;5032696;28;20207;-80
2021/12/20 07:33:49;;;;;;;23.90;17.63;;;2.80;99.90;;;;;;5034536;28;20203;-79
2021/12/20 07:36:19;;;;;;;18.67;12.70;;;2.80;99.90;;;;;;5025816;28;20483;-80
2021/12/20 07:38:46;;;;;;;20.87;14.47;;;2.90;99.90;;;;;;5032610;28;20254;-81
2021/12/20 07:41:13;;;;;;;22.37;16.40;;;2.90;99.90;;;;;;5032876;28;20470;-79
2021/12/20 07:43:40;;;;;;;18.60;12.40;;;3.00;99.90;;;;;;5035931;28;20673;-80
2021/12/20 07:46:07;;;;;;;24.60;22.10;;;2.90;99.90;;;;;;5038349;28;20207;-82
2021/12/20 07:48:35;;;;;;;27.60;22.27;;;2.90;99.90;;;;;;5035833;28;20231;-82
2021/12/20 07:51:03;;;;;;;17.53;12.60;;;2.90;99.90;;;;;;5036797;28;20192;-83
2021/12/20 07:53:30;;;;;;;20.20;14.90;;;3.00;99.90;;;;;;5029884;28;20858;-81
2021/12/20 07:55:57;;;;;;;20.77;13.93;;;3.00;99.90;;;;;;5034947;28;20466;-82
2021/12/20 07:58:24;;;;;;;21.37;13.93;;;3.10;99.90;;;;;;5034881;28;20202;-81
2021/12/20 08:00:51;;;;;;;27.20;24.47;;;3.10;99.90;;;;;;5035636;28;20216;-82
2021/12/20 08:03:21;;;;;;;22.33;15.70;;;3.00;99.90;;;;;;5035968;28;20669;-79
2021/12/20 08:05:49;;;;;;;25.83;23.33;;;3.00;99.90;;;;;;5029946;28;20246;-81
2021/12/20 08:08:16;;;;;;;25.37;20.37;;;3.10;99.90;;;;;;5034053;28;20200;-81
2021/12/20 08:10:43;;;;;;;18.87;13.90;;;3.10;99.90;;;;;;5035777;28;20200;-81
2021/12/20 08:13:12;;;;;;;24.40;18.60;;;3.20;99.90;;;;;;5033958;28;20195;-81
2021/12/20 08:15:39;;;;;;;21.30;19.07;;;3.20;99.90;;;;;;5035045;28;20223;-79
2021/12/20 08:18:06;;;;;;;21.93;18.93;;;3.20;99.90;;;;;;5033705;28;20624;-79
2021/12/20 08:20:33;;;;;;;18.67;13.87;;;3.30;99.90;;;;;;5035089;28;20314;-79
2021/12/20 08:23:03;;;;;;;22.73;16.73;;;3.30;99.90;;;;;;5030636;28;20266;-81
2021/12/20 08:25:30;;;;;;;22.93;20.53;;;3.30;99.90;;;;;;5031230;28;20235;-81
2021/12/20 08:27:57;;;;;;;22.10;15.03;;;3.40;99.90;;;;;;5035433;28;20258;-81
2021/12/20 08:30:25;;;;;;;19.80;13.20;;;3.40;99.90;;;;;;5035866;28;20672;-80
2021/12/20 08:32:52;;;;;;;20.03;12.53;;;3.40;99.90;;;;;;5034014;28;20203;-81
2021/12/20 08:35:19;;;;;;;20.10;13.67;;;3.40;99.90;;;;;;5058884;22;20529;-74
2021/12/20 08:37:48;;;;;;;20.50;15.80;;;3.50;99.90;;;;;;5025175;28;20203;-75
2021/12/20 08:40:17;;;;;;;18.40;14.13;;;3.40;99.90;;;;;;5033874;28;20188;-75
2021/12/20 08:42:45;;;;;;;19.43;12.80;;;3.40;99.90;;;;;;5022491;28;20224;-74
2021/12/20 08:45:13;;;;;;;25.17;22.50;;;3.40;99.90;;;;;;5030089;28;20283;-75
2021/12/20 08:47:40;;;;;;;22.37;19.30;;;3.40;99.90;;;;;;4996126;28;20506;-74
2021/12/20 08:50:12;;;;;;;20.33;13.70;;;3.40;99.90;;;;;;5018644;28;20244;-75
2021/12/20 08:52:39;;;;;;;18.30;12.33;;;3.50;99.90;;;;;;5025398;28;20192;-74
2021/12/20 08:55:08;;;;;;;18.33;12.53;;;3.60;99.90;;;;;;5000658;28;20223;-75
2021/12/20 08:57:36;;;;;;;21.00;18.70;;;3.70;99.90;;;;;;5016105;28;20199;-75
2021/12/20 09:00:07;;;;;;;18.13;14.70;;;3.70;99.90;;;;;;5021816;28;20210;-74
2021/12/20 09:02:34;;;;;;;22.33;14.23;;;3.80;99.90;;;;;;5000057;28;20241;-75
2021/12/20 09:05:00;;;;;;;19.70;15.80;;;3.90;99.90;;;;;;5007407;28;20211;-75
2021/12/20 09:07:27;;;;;;;17.50;12.77;;;4.00;99.90;;;;;;5014250;28;20205;-74
2021/12/20 09:09:54;;;;;;;21.37;17.33;;;4.10;99.90;;;;;;5004262;28;20621;-74
2021/12/20 09:12:22;;;;;;;18.50;12.73;;;4.20;99.90;;;;;;5000073;28;20204;-75
2021/12/20 09:14:50;;;;;;;22.03;19.70;;;4.10;99.90;;;;;;5005797;28;20204;-74
2021/12/20 09:17:17;;;;;;;20.50;18.03;;;4.10;99.90;;;;;;5024648;28;20681;-74
2021/12/20 09:19:44;;;;;;;24.67;22.37;;;4.00;99.90;;;;;;4996208;28;20204;-74
2021/12/20 09:22:11;;;;;;;24.13;22.00;;;4.10;99.90;;;;;;5017176;28;20228;-75
2021/12/20 09:24:40;;;;;;;22.70;17.53;;;4.00;99.90;;;;;;5024724;28;20204;-75
2021/12/20 09:27:08;;;;;;;20.10;14.50;;;4.10;99.90;;;;;;5017224;28;20220;-75
2021/12/20 09:29:35;;;;;;;18.50;12.77;;;4.10;99.90;;;;;;5021333;28;20243;-75
2021/12/20 09:32:04;;;;;;;21.70;18.20;;;4.10;99.90;;;;;;5011602;28;20712;-75
2021/12/20 09:34:32;;;;;;;19.37;16.07;;;4.20;99.90;;;;;;5021455;28;20634;-74
2021/12/20 09:37:04;;;;;;;20.23;12.37;;;4.30;99.90;;;;;;5016586;28;20224;-74
2021/12/20 09:39:33;;;;;;;21.07;18.10;;;4.20;99.90;;;;;;5008390;28;20208;-74
2021/12/20 09:42:03;;;;;;;18.70;12.20;;;4.30;99.90;;;;;;4997863;28;20267;-75
2021/12/20 09:44:31;;;;;;;20.83;18.83;;;4.40;99.90;;;;;;5013295;28;20223;-74
2021/12/20 09:46:59;;;;;;;19.93;17.60;;;4.50;99.90;;;;;;5003065;28;20267;-75
2021/12/20 09:49:29;;;;;;;17.50;13.80;;;4.60;99.90;;;;;;5017135;28;20196;-75
2021/12/20 09:51:57;;;;;;;17.10;14.90;;;4.60;99.90;;;;;;4999292;28;20204;-75
2021/12/20 09:54:25;;;;;;;21.10;18.17;;;4.70;99.90;;;;;;5020583;28;20885;-75
2021/12/20 09:56:53;;;;;;;16.80;14.83;;;4.80;99.90;;;;;;5002781;28;20266;-75
2021/12/20 09:59:22;;;;;;;15.23;12.67;;;4.80;99.90;;;;;;5014946;28;20622;-74
2021/12/20 10:01:51;;;;;;;23.60;21.30;;;4.80;99.90;;;;;;5020711;28;20750;-74
2021/12/20 10:04:18;;;;;;;24.33;21.83;;;4.80;99.90;;;;;;5020810;28;20192;-74
2021/12/20 10:06:54;;;;;;;17.97;13.07;;;4.80;99.90;;;;;;5017608;28;20226;-75
2021/12/20 10:09:26;;;;;;;22.73;20.63;;;4.80;99.90;;;;;;4998167;28;20336;-75
2021/12/20 10:12:14;;;;;;;25.50;23.10;;;4.80;99.90;;;;;;5017101;28;20262;-75
2021/12/20 10:14:56;;;;;;;25.30;22.93;;;4.80;99.90;;;;;;5006726;28;20276;-75
2021/12/20 10:17:26;;;;;;;25.90;23.40;;;4.80;99.90;;;;;;5002151;28;20216;-75
2021/12/20 10:19:54;;;;;;;24.10;21.90;;;4.80;99.90;;;;;;5023618;28;20283;-74
2021/12/20 10:22:28;;;;;;;24.80;22.30;;;4.90;99.90;;;;;;5023724;28;20224;-74
2021/12/20 10:24:57;;;;;;;24.63;22.33;;;4.80;99.90;;;;;;5005780;28;20231;-74
2021/12/20 10:27:33;;;;;;;25.33;22.97;;;4.90;99.90;;;;;;5013087;28;20197;-75
2021/12/20 10:30:00;;;;;;;25.23;22.93;;;4.80;99.90;;;;;;5000974;28;20216;-75
2021/12/20 10:32:45;;;;;;;24.30;21.97;;;4.80;99.90;;;;;;5017973;28;20199;-75
2021/12/20 10:35:37;;;;;;;26.00;23.33;;;4.90;99.90;;;;;;5019820;28;20219;-74
2021/12/20 10:38:08;;;;;;;25.67;23.27;;;5.00;99.90;;;;;;5014735;28;20207;-74
2021/12/20 10:40:46;;;;;;;26.33;23.77;;;5.00;99.90;;;;;;5023570;28;20582;-75
2021/12/20 10:43:15;;;;;;;24.97;22.70;;;5.10;99.90;;;;;;4998078;28;20221;-75
2021/12/20 10:45:42;;;;;;;25.97;23.67;;;5.00;99.90;;;;;;5019960;28;20223;-74
2021/12/20 10:48:10;;;;;;;25.07;22.67;;;5.10;99.90;;;;;;5020390;28;20295;-74
2021/12/20 10:50:42;;;;;;;25.77;23.17;;;5.00;99.90;;;;;;5026798;28;20666;-74
2021/12/20 10:53:21;;;;;;;25.20;22.90;;;5.00;99.90;;;;;;5003221;28;20189;-75
2021/12/20 10:55:50;;;;;;;24.93;22.33;;;4.90;99.90;;;;;;5000733;28;20227;-75
2021/12/20 10:58:29;;;;;;;25.63;23.13;;;5.00;99.90;;;;;;5014961;28;20218;-75
2021/12/20 11:01:14;;;;;;;26.17;23.57;;;5.00;99.90;;;;;;4998246;28;20683;-75
2021/12/20 11:03:43;;;;;;;25.13;22.53;;;4.90;99.90;;;;;;5006663;28;20225;-74
2021/12/20 11:09:08;;;;;;;23.67;21.37;;;4.90;99.90;;;;;;4997388;28;20294;-75
2021/12/20 11:11:37;;;;;;;25.07;22.40;;;4.80;99.90;;;;;;5013279;28;20202;-75
2021/12/20 11:14:05;;;;;;;23.70;21.30;;;4.80;99.90;;;;;;4997101;28;20669;-75
2021/12/20 11:16:35;;;;;;;23.73;21.63;;;4.90;99.90;;;;;;5018863;28;20224;-74
2021/12/20 11:19:14;;;;;;;23.40;21.20;;;5.00;99.90;;;;;;5005473;28;20212;-75
2021/12/20 11:21:48;;;;;;;22.93;20.80;;;5.10;99.90;;;;;;5017619;28;20212;-75
2021/12/20 11:24:18;;;;;;;23.40;21.10;;;5.30;99.90;;;;;;5005826;28;20200;-74
2021/12/20 11:26:44;;;;;;;24.37;22.07;;;5.50;99.90;;;;;;5011442;28;20232;-75
2021/12/20 11:29:11;;;;;;;23.00;20.70;;;5.50;99.90;;;;;;5017324;28;20688;-75
2021/12/20 11:31:39;;;;;;;25.37;22.70;;;5.70;99.90;;;;;;5030050;28;20193;-75
2021/12/20 11:34:07;;;;;;;24.20;21.77;;;5.80;99.90;;;;;;4999645;28;20209;-74
2021/12/20 11:36:35;;;;;;;23.87;21.50;;;5.90;99.90;;;;;;5022128;28;20232;-74
2021/12/20 11:39:03;;;;;;;24.53;22.10;;;5.90;99.90;;;;;;5005399;28;20193;-75
2021/12/20 11:41:31;;;;;;;23.83;21.53;;;5.90;99.90;;;;;;5015321;28;20207;-74
2021/12/20 11:44:01;;;;;;;23.07;20.87;;;5.90;99.90;;;;;;5005827;28;20229;-76
2021/12/20 11:46:35;;;;;;;22.83;20.63;;;6.00;99.90;;;;;;5023006;28;20228;-77
2021/12/20 11:49:02;;;;;;;22.57;20.37;;;5.90;99.90;;;;;;5016396;28;20197;-74
2021/12/20 11:51:29;;;;;;;23.80;21.43;;;6.00;99.90;;;;;;4990738;28;20206;-74
2021/12/20 11:53:58;;;;;;;23.83;21.47;;;5.90;99.90;;;;;;5023027;28;20656;-74
2021/12/20 11:56:39;;;;;;;22.87;20.50;;;5.80;99.90;;;;;;5005212;28;20219;-75
2021/12/20 11:59:06;;;;;;;23.60;21.30;;;5.70;99.90;;;;;;5018638;28;20580;-75
2021/12/20 12:01:33;;;;;;;23.50;21.13;;;5.70;99.90;;;;;;5005334;28;20201;-75
2021/12/20 12:04:00;;;;;;;22.90;20.47;;;5.80;99.90;;;;;;5004960;28;20201;-75
2021/12/20 12:06:30;;;;;;;23.43;21.13;;;6.00;99.90;;;;;;5022122;28;20278;-75
2021/12/20 12:08:59;;;;;;;22.33;20.03;;;6.00;99.90;;;;;;5017634;28;20206;-76
2021/12/20 12:11:35;;;;;;;21.53;19.47;;;6.00;99.90;;;;;;5022874;28;20206;-75
2021/12/20 12:17:03;;;;;;;20.63;18.53;;;6.20;99.90;;;;;;5018072;28;20214;-75
2021/12/20 12:19:41;;;;;;;21.10;19.20;;;6.10;99.90;;;;;;4997368;28;20198;-76
2021/12/20 12:22:37;;;;;;;22.10;19.90;;;6.10;99.90;;;;;;5018566;28;20714;-75
2021/12/20 12:25:08;;;;;;;22.10;19.93;;;6.10;99.90;;;;;;5004763;28;20193;-76
2021/12/20 12:27:36;;;;;;;23.63;21.27;;;6.10;99.90;;;;;;5004736;28;20205;-76
2021/12/20 12:30:36;;;;;;;23.97;21.57;;;6.00;99.90;;;;;;5021055;28;20197;-75
2021/12/20 12:33:27;;;;;;;25.60;21.77;;;5.90;99.90;;;;;;5019373;28;20200;-75
2021/12/20 12:35:59;;;;;;;23.87;21.37;;;5.80;99.90;;;;;;5017639;28;20217;-75
2021/12/20 12:38:31;;;;;;;23.57;21.10;;;5.80;99.90;;;;;;5000619;28;20247;-75
2021/12/20 12:41:15;;;;;;;23.43;21.13;;;5.80;99.90;;;;;;5018035;28;20228;-75
2021/12/20 12:44:00;;;;;;;23.00;20.63;;;5.80;99.90;;;;;;5008333;28;20226;-75
2021/12/20 12:46:47;;;;;;;22.67;20.43;;;5.80;99.90;;;;;;5012328;28;20237;-77
2021/12/20 12:49:34;;;;;;;22.97;20.67;;;5.80;99.90;;;;;;5001162;28;20300;-76
2021/12/20 12:52:05;;;;;;;22.07;19.80;;;5.80;99.90;;;;;;4999436;28;20561;-75
2021/12/20 12:54:40;;;;;;;21.73;19.63;;;5.60;99.90;;;;;;5014259;28;20332;-75
2021/12/20 12:57:38;;;;;;;23.77;20.33;;;5.60;99.90;;;;;;5004108;28;20224;-76
2021/12/20 13:00:33;;;;;;;21.93;19.80;;;5.70;99.90;;;;;;5015891;28;20215;-76